Time;durP1;ratioP1;P1;durP2;ratioP2;P2;SDS_P1;SDS_P2;PMS_P1;PMS_P2;Temp;Humidity;BMP_temperature;BMP_pressure;BME280_temperature;BME280_humidity;BME280_pressure;Samples;Min_cycle;Max_cycle;Signal;HPM_P1;HPM_P2
2022/05/07 00:02:10;;;;;;;28.73;21.92;;;13.10;99.90;;;;;;5045235;28;20475;-80
2022/05/07 00:04:37;;;;;;;34.25;23.25;;;13.00;99.90;;;;;;5044026;28;20029;-80
2022/05/07 00:07:07;;;;;;;32.92;22.23;;;13.00;99.90;;;;;;5028961;28;20486;-81
2022/05/07 00:09:33;;;;;;;28.45;21.40;;;13.00;99.90;;;;;;5028903;28;20491;-80
2022/05/07 00:11:59;;;;;;;27.55;22.17;;;13.10;99.90;;;;;;5028049;28;20590;-81
2022/05/07 00:14:26;;;;;;;28.48;23.23;;;13.10;99.90;;;;;;5027178;28;20075;-80
2022/05/07 00:19:52;;;;;;;31.83;23.60;;;13.20;99.90;;;;;;5006802;28;20480;-80
2022/05/07 00:22:18;;;;;;;32.22;24.40;;;13.20;99.90;;;;;;5051075;28;20076;-80
2022/05/07 00:24:44;;;;;;;32.53;25.52;;;13.20;99.90;;;;;;5044017;28;20037;-80
2022/05/07 00:27:11;;;;;;;31.25;24.80;;;13.20;99.90;;;;;;5042586;28;20151;-80
2022/05/07 00:29:36;;;;;;;36.05;26.25;;;13.20;99.90;;;;;;5043882;28;20085;-80
2022/05/07 00:32:03;;;;;;;39.05;27.10;;;13.20;99.90;;;;;;5045443;28;20056;-80
2022/05/07 00:34:29;;;;;;;37.35;27.58;;;13.20;99.90;;;;;;5044180;28;20041;-80
2022/05/07 01:21:12;;;;;;;40.30;26.85;;;13.20;99.90;;;;;;5044632;28;20028;-80
2022/05/07 01:23:40;;;;;;;39.05;28.10;;;13.30;99.90;;;;;;5045122;28;20437;-80
2022/05/07 01:26:05;;;;;;;43.40;28.55;;;13.20;99.90;;;;;;5046090;28;20498;-80
2022/05/07 01:28:31;;;;;;;39.15;28.55;;;13.20;99.90;;;;;;5048468;28;20048;-79
2022/05/07 01:30:56;;;;;;;39.63;28.75;;;13.20;99.90;;;;;;5036053;28;20092;-80
2022/05/07 01:33:22;;;;;;;37.58;28.08;;;13.20;99.90;;;;;;5045947;28;20486;-80
2022/05/07 01:35:47;;;;;;;37.42;28.50;;;13.20;99.90;;;;;;5047817;28;20068;-79
2022/05/07 01:38:13;;;;;;;37.13;26.67;;;13.20;99.90;;;;;;5044490;28;20037;-80
2022/05/07 01:40:38;;;;;;;39.00;28.00;;;13.10;99.90;;;;;;5047617;28;20045;-79
2022/05/07 01:43:04;;;;;;;41.63;29.00;;;13.20;99.90;;;;;;5050230;28;20047;-79
2022/05/07 01:45:30;;;;;;;37.72;27.55;;;13.20;99.90;;;;;;5034809;28;20123;-79
2022/05/07 01:48:10;;;;;;;40.90;28.55;;;13.10;99.90;;;;;;5031331;28;20037;-79
2022/05/07 01:50:42;;;;;;;41.78;27.77;;;13.20;99.90;;;;;;5043608;28;20032;-78
2022/05/07 01:53:12;;;;;;;40.88;29.30;;;13.20;99.90;;;;;;5051375;28;20041;-79
2022/05/07 01:55:38;;;;;;;41.65;29.95;;;13.20;99.90;;;;;;5051933;28;20037;-79
2022/05/07 01:58:04;;;;;;;37.53;28.23;;;13.10;99.90;;;;;;5051049;28;20045;-79
2022/05/07 02:00:30;;;;;;;40.63;28.70;;;13.20;99.90;;;;;;5051335;28;20033;-79
2022/05/07 02:02:57;;;;;;;40.50;28.00;;;13.10;99.90;;;;;;5049948;28;20033;-79
2022/05/07 02:05:25;;;;;;;40.00;27.92;;;13.10;99.90;;;;;;5041474;28;20045;-78
2022/05/07 02:07:50;;;;;;;40.03;29.73;;;13.10;99.90;;;;;;5051820;28;20473;-79
2022/05/07 02:10:16;;;;;;;40.53;29.73;;;13.10;99.90;;;;;;5051310;28;20056;-78
2022/05/07 02:12:41;;;;;;;38.38;28.33;;;13.10;99.90;;;;;;5050636;28;20095;-79
2022/05/07 02:15:07;;;;;;;39.22;29.48;;;13.10;99.90;;;;;;5049877;28;20095;-78
2022/05/07 02:17:33;;;;;;;41.38;28.92;;;13.10;99.90;;;;;;5050337;28;20041;-79
2022/05/07 02:19:58;;;;;;;39.60;28.58;;;13.00;99.90;;;;;;5032693;28;20510;-79
2022/05/07 02:22:24;;;;;;;42.47;29.60;;;13.00;99.90;;;;;;5046851;28;20040;-79
2022/05/07 02:24:51;;;;;;;39.95;30.27;;;13.00;99.90;;;;;;5046849;28;20037;-79
2022/05/07 02:27:16;;;;;;;44.60;30.50;;;12.90;99.90;;;;;;5050988;28;20040;-79
2022/05/07 02:29:42;;;;;;;39.70;30.08;;;12.90;99.90;;;;;;5050056;28;20040;-79
2022/05/07 02:32:08;;;;;;;37.90;28.65;;;12.90;99.90;;;;;;5050132;28;20567;-79
2022/05/07 02:34:35;;;;;;;37.22;29.02;;;12.90;99.90;;;;;;5042296;28;20403;-78
2022/05/07 02:37:01;;;;;;;39.28;28.42;;;13.00;99.90;;;;;;5051695;28;20058;-78
2022/05/07 02:39:27;;;;;;;37.95;29.75;;;13.00;99.90;;;;;;5040052;28;20037;-79
2022/05/07 02:44:37;;;;;;;40.70;29.65;;;13.00;99.90;;;;;;5050068;28;20048;-79
2022/05/07 02:47:04;;;;;;;40.05;30.77;;;13.00;99.90;;;;;;5037759;28;20038;-78
2022/05/07 02:49:30;;;;;;;38.30;30.08;;;13.00;99.90;;;;;;5049895;28;20041;-79
2022/05/07 02:51:56;;;;;;;40.17;28.52;;;13.00;99.90;;;;;;5048313;28;20036;-78
2022/05/07 02:54:22;;;;;;;39.15;29.48;;;12.90;99.90;;;;;;5050396;28;20045;-78
2022/05/07 02:56:47;;;;;;;37.78;30.23;;;13.00;99.90;;;;;;5031709;28;20415;-78
2022/05/07 02:59:13;;;;;;;38.95;28.13;;;12.90;99.90;;;;;;5040006;28;20049;-78
2022/05/07 03:01:41;;;;;;;41.25;29.42;;;12.90;99.90;;;;;;5049254;28;20052;-78
2022/05/07 03:04:10;;;;;;;40.05;31.00;;;12.90;99.90;;;;;;5049828;28;20036;-78
2022/05/07 03:06:36;;;;;;;39.80;28.92;;;12.90;99.90;;;;;;5050532;28;20033;-78
2022/05/07 03:09:03;;;;;;;42.42;30.95;;;12.90;99.90;;;;;;5047254;28;20074;-78
2022/05/07 03:11:29;;;;;;;39.25;28.85;;;12.90;99.90;;;;;;5049791;28;20041;-79
2022/05/07 03:13:54;;;;;;;34.03;27.38;;;12.90;99.90;;;;;;5050431;28;20470;-78
2022/05/07 03:16:20;;;;;;;38.70;28.70;;;12.80;99.90;;;;;;5035047;28;20041;-78
2022/05/07 03:18:45;;;;;;;42.22;30.70;;;12.80;99.90;;;;;;5047418;28;20556;-78
2022/05/07 03:21:11;;;;;;;39.05;29.48;;;12.80;99.90;;;;;;5045520;28;20408;-79
2022/05/07 03:23:37;;;;;;;40.85;29.33;;;12.70;99.90;;;;;;5050229;28;20044;-78
2022/05/07 03:26:02;;;;;;;36.55;28.65;;;12.70;99.90;;;;;;5043010;28;20052;-78
2022/05/07 03:28:28;;;;;;;38.10;29.67;;;12.70;99.90;;;;;;5050966;28;20131;-78
2022/05/07 03:30:53;;;;;;;40.15;30.48;;;12.60;99.90;;;;;;5049889;28;20120;-79
2022/05/07 03:33:19;;;;;;;43.33;30.55;;;12.60;99.90;;;;;;5050862;28;20127;-78
2022/05/07 03:35:45;;;;;;;41.35;29.27;;;12.60;99.90;;;;;;5046317;28;20110;-78
2022/05/07 03:38:10;;;;;;;39.42;28.92;;;12.60;99.90;;;;;;5048175;28;20041;-78
2022/05/07 03:40:36;;;;;;;37.67;27.45;;;12.60;99.90;;;;;;5048168;28;20039;-78
2022/05/07 03:43:03;;;;;;;38.88;29.50;;;12.60;99.90;;;;;;5046208;28;20068;-79
2022/05/07 03:45:29;;;;;;;34.28;26.45;;;12.50;99.90;;;;;;5065343;28;20093;-79
2022/05/07 03:47:56;;;;;;;36.28;28.38;;;12.50;99.90;;;;;;5048891;28;20045;-79
2022/05/07 03:50:21;;;;;;;37.08;28.58;;;12.50;99.90;;;;;;5033436;28;20033;-79
2022/05/07 03:55:31;;;;;;;;;;;12.40;99.90;;;;;;5048191;28;20041;-79
2022/05/07 03:57:57;;;;;;;35.85;27.50;;;12.40;99.90;;;;;;5030666;28;19921;-79
2022/05/07 04:00:22;;;;;;;36.15;27.85;;;12.30;99.90;;;;;;5031523;28;20037;-78
2022/05/07 04:02:48;;;;;;;36.83;28.60;;;12.40;99.90;;;;;;5047322;28;20091;-78
2022/05/07 04:05:13;;;;;;;37.38;28.75;;;12.40;99.90;;;;;;5049497;28;20116;-78
2022/05/07 04:07:39;;;;;;;36.90;28.05;;;12.50;99.90;;;;;;5028867;28;20120;-79
2022/05/07 04:10:05;;;;;;;38.67;29.75;;;12.50;99.90;;;;;;5049053;28;20037;-79
2022/05/07 04:12:31;;;;;;;38.45;29.05;;;12.50;99.90;;;;;;5040306;28;20037;-78
2022/05/07 04:15:00;;;;;;;37.72;29.02;;;12.50;99.90;;;;;;5029639;28;20454;-79
2022/05/07 04:17:26;;;;;;;38.80;29.27;;;12.50;99.90;;;;;;5029707;28;20044;-79
2022/05/07 04:19:51;;;;;;;35.90;27.58;;;12.50;99.90;;;;;;5048101;28;20037;-78
2022/05/07 04:22:17;;;;;;;36.92;27.60;;;12.50;99.90;;;;;;5045805;28;20589;-79
2022/05/07 04:24:43;;;;;;;35.15;28.80;;;12.50;99.90;;;;;;5031850;28;20414;-79
2022/05/07 04:27:09;;;;;;;33.95;27.58;;;12.50;99.90;;;;;;5050320;28;20037;-79
2022/05/07 04:29:34;;;;;;;34.90;26.13;;;12.60;99.90;;;;;;5046429;28;20044;-79
2022/05/07 04:32:00;;;;;;;34.35;26.90;;;12.60;99.90;;;;;;5048832;28;20115;-79
2022/05/07 04:34:28;;;;;;;33.05;25.63;;;12.60;99.90;;;;;;5040009;28;20068;-79
2022/05/07 04:36:54;;;;;;;38.28;28.35;;;12.60;99.90;;;;;;5040331;28;20041;-79
2022/05/07 04:39:19;;;;;;;37.20;27.27;;;12.60;99.90;;;;;;5048659;28;20051;-79
2022/05/07 04:41:45;;;;;;;32.15;26.73;;;12.60;99.90;;;;;;5047033;28;20090;-79
2022/05/07 04:44:11;;;;;;;36.72;26.77;;;12.60;99.90;;;;;;5047997;28;20620;-79
2022/05/07 04:46:37;;;;;;;31.20;25.25;;;12.60;99.90;;;;;;5039087;28;20140;-79
2022/05/07 04:49:05;;;;;;;34.83;26.92;;;12.60;99.90;;;;;;5038914;28;20048;-79
2022/05/07 04:51:31;;;;;;;34.60;27.15;;;12.60;99.90;;;;;;5046371;28;20055;-79
2022/05/07 04:53:57;;;;;;;38.55;27.83;;;12.60;99.90;;;;;;5049010;28;20045;-79
2022/05/07 04:56:24;;;;;;;36.58;27.88;;;12.70;99.90;;;;;;5048632;28;20060;-79
2022/05/07 04:58:51;;;;;;;36.38;28.45;;;12.70;99.90;;;;;;5030812;28;20033;-79
2022/05/07 05:01:16;;;;;;;36.58;29.92;;;12.70;99.90;;;;;;5046627;28;20095;-79
2022/05/07 05:03:42;;;;;;;38.17;28.65;;;12.70;99.90;;;;;;5047722;28;20041;-79
2022/05/07 05:06:08;;;;;;;39.33;28.45;;;12.70;99.90;;;;;;5031480;28;20029;-79
2022/05/07 05:08:33;;;;;;;36.75;28.45;;;12.60;99.90;;;;;;5048371;28;20100;-79
2022/05/07 05:10:59;;;;;;;37.00;29.17;;;12.70;99.90;;;;;;5048630;28;20117;-79
2022/05/07 05:13:24;;;;;;;36.15;28.33;;;12.70;99.90;;;;;;5047815;28;20096;-79
2022/05/07 05:15:50;;;;;;;35.28;28.50;;;12.80;99.90;;;;;;5049869;28;20407;-79
2022/05/07 05:18:16;;;;;;;40.55;29.25;;;12.80;99.90;;;;;;5040158;28;20116;-79
2022/05/07 05:20:42;;;;;;;38.95;29.08;;;12.90;99.90;;;;;;5049967;28;20053;-79
2022/05/07 05:23:07;;;;;;;37.67;29.77;;;12.90;99.90;;;;;;5067177;28;20052;-79
2022/05/07 05:25:33;;;;;;;34.58;29.33;;;12.90;99.90;;;;;;5049788;28;20120;-78
2022/05/07 05:27:59;;;;;;;38.35;29.00;;;13.00;99.90;;;;;;5044770;28;20093;-79
2022/05/07 05:30:24;;;;;;;40.38;29.67;;;13.00;99.90;;;;;;5052886;28;20481;-79
2022/05/07 05:32:50;;;;;;;36.80;29.17;;;13.10;99.90;;;;;;5053320;28;20109;-78
2022/05/07 05:35:15;;;;;;;41.40;30.38;;;13.10;99.90;;;;;;5053593;28;20040;-79
2022/05/07 05:37:41;;;;;;;43.22;30.25;;;13.10;99.90;;;;;;5039350;28;20041;-79
2022/05/07 05:40:07;;;;;;;45.45;31.60;;;13.10;99.90;;;;;;5032784;28;20306;-78
2022/05/07 05:42:33;;;;;;;38.63;28.73;;;13.20;99.90;;;;;;5035297;28;20036;-79
2022/05/07 05:44:58;;;;;;;39.03;28.40;;;13.20;99.90;;;;;;5029614;28;20480;-78
2022/05/07 05:47:24;;;;;;;41.80;29.50;;;13.20;99.90;;;;;;5047384;28;20419;-78
2022/05/07 05:49:50;;;;;;;38.75;29.30;;;13.30;99.90;;;;;;5029582;28;20045;-78
2022/05/07 05:52:16;;;;;;;36.45;30.00;;;13.30;99.90;;;;;;5046530;28;20063;-78
2022/05/07 05:54:41;;;;;;;36.58;29.52;;;13.30;99.90;;;;;;5029292;28;20498;-78
2022/05/07 05:57:07;;;;;;;40.55;30.98;;;13.30;99.90;;;;;;5062497;28;20037;-78
2022/05/07 05:59:33;;;;;;;37.75;29.33;;;13.40;99.90;;;;;;5047366;28;20541;-78
2022/05/07 06:01:58;;;;;;;39.08;30.48;;;13.40;99.90;;;;;;5030344;28;20541;-78
2022/05/07 06:04:24;;;;;;;38.13;29.45;;;13.40;99.90;;;;;;5044888;28;20040;-79
2022/05/07 06:06:50;;;;;;;37.00;29.52;;;13.50;99.90;;;;;;5047194;28;20189;-79
2022/05/07 06:09:15;;;;;;;37.80;29.02;;;13.60;99.90;;;;;;5047415;28;20542;-78
2022/05/07 06:11:41;;;;;;;40.47;29.33;;;13.70;99.90;;;;;;5046626;28;20519;-78
2022/05/07 06:14:07;;;;;;;38.95;29.58;;;13.70;99.90;;;;;;5044870;28;20087;-78
2022/05/07 06:16:32;;;;;;;38.13;28.63;;;13.80;99.90;;;;;;5047359;28;20056;-78
2022/05/07 06:18:59;;;;;;;36.00;28.55;;;13.90;99.90;;;;;;5044257;28;20103;-78
2022/05/07 06:21:26;;;;;;;39.25;28.27;;;13.90;99.90;;;;;;5045972;28;20033;-78
2022/05/07 06:23:52;;;;;;;35.22;28.35;;;14.00;99.90;;;;;;5046701;28;20044;-78
2022/05/07 06:29:01;;;;;;;35.60;28.20;;;14.00;99.90;;;;;;5047166;28;20045;-78
2022/05/07 06:31:27;;;;;;;37.30;26.90;;;14.10;99.90;;;;;;5046347;28;20494;-78
2022/05/07 06:33:52;;;;;;;32.35;26.83;;;14.20;99.90;;;;;;5046014;28;20032;-78
2022/05/07 06:36:18;;;;;;;32.80;26.63;;;14.20;99.90;;;;;;5047583;28;20256;-78
2022/05/07 06:38:43;;;;;;;30.77;26.05;;;14.20;99.90;;;;;;5046688;28;20164;-77
2022/05/07 06:41:09;;;;;;;47.05;26.92;;;14.30;99.90;;;;;;5042738;28;20128;-77
2022/05/07 06:43:34;;;;;;;33.67;25.90;;;14.30;99.90;;;;;;5048627;28;20029;-77
2022/05/07 06:46:01;;;;;;;31.88;26.00;;;14.30;99.90;;;;;;5050411;28;20048;-77
2022/05/07 06:48:27;;;;;;;32.03;25.75;;;14.30;99.90;;;;;;5051549;28;20085;-77
2022/05/07 06:50:54;;;;;;;33.65;26.75;;;14.40;99.90;;;;;;5051716;28;20037;-77
2022/05/07 06:53:19;;;;;;;32.83;25.83;;;14.50;99.90;;;;;;5050414;28;20103;-77
2022/05/07 06:56:01;;;;;;;29.60;24.80;;;14.50;99.90;;;;;;5050709;28;20041;-78
2022/05/07 06:58:32;;;;;;;29.85;24.08;;;14.60;99.90;;;;;;5049415;28;20354;-78
2022/05/07 07:01:00;;;;;;;32.33;24.75;;;14.70;99.90;;;;;;5047340;28;20523;-78
2022/05/07 07:03:26;;;;;;;30.38;24.70;;;14.80;99.90;;;;;;5049566;28;20033;-78
2022/05/07 07:05:53;;;;;;;30.50;24.48;;;14.80;99.90;;;;;;5046983;28;20033;-77
2022/05/07 07:08:19;;;;;;;29.88;25.83;;;15.00;99.90;;;;;;5046114;28;20041;-78
2022/05/07 07:10:45;;;;;;;30.55;23.98;;;15.10;99.90;;;;;;5047127;28;20529;-78
2022/05/07 07:13:11;;;;;;;34.15;25.02;;;15.30;99.90;;;;;;5037801;28;20490;-78
2022/05/07 07:15:39;;;;;;;29.45;24.25;;;15.40;99.90;;;;;;5045766;28;20037;-78
2022/05/07 07:18:11;;;;;;;29.55;23.17;;;15.50;99.90;;;;;;5044373;28;20061;-78
2022/05/07 07:20:42;;;;;;;30.30;24.48;;;15.80;99.90;;;;;;5031374;28;20479;-77
2022/05/07 07:23:12;;;;;;;29.98;23.52;;;15.90;99.90;;;;;;5031220;28;20041;-77
2022/05/07 07:25:41;;;;;;;32.78;24.13;;;16.10;99.90;;;;;;5031006;28;20051;-77
2022/05/07 07:28:09;;;;;;;27.75;23.25;;;16.10;99.90;;;;;;5031322;28;20517;-77
2022/05/07 07:30:34;;;;;;;29.35;24.50;;;16.30;99.90;;;;;;5031213;28;20115;-77
2022/05/07 07:33:01;;;;;;;31.67;23.85;;;16.20;99.90;;;;;;5031427;28;20038;-78
2022/05/07 07:35:27;;;;;;;28.92;24.50;;;16.10;99.90;;;;;;5030262;28;20041;-77
2022/05/07 07:37:52;;;;;;;30.45;23.55;;;16.10;99.90;;;;;;5030260;28;20073;-77
2022/05/07 07:40:18;;;;;;;28.83;23.92;;;16.10;99.90;;;;;;5014457;28;20075;-77
2022/05/07 07:42:44;;;;;;;26.95;23.73;;;16.00;99.90;;;;;;5030936;28;20041;-77
2022/05/07 07:47:59;;;;;;;30.98;25.00;;;16.10;99.90;;;;;;5031218;28;20140;-78
2022/05/07 07:50:30;;;;;;;31.30;23.42;;;16.00;99.90;;;;;;5030862;28;20489;-77
2022/05/07 07:53:01;;;;;;;30.40;23.38;;;16.00;99.90;;;;;;5030778;28;20577;-77
2022/05/07 07:55:27;;;;;;;28.75;24.35;;;16.20;99.90;;;;;;5029876;28;20100;-77
2022/05/07 07:57:54;;;;;;;30.30;23.35;;;16.40;99.90;;;;;;5014163;28;20048;-77
2022/05/07 08:00:20;;;;;;;29.55;23.73;;;16.40;99.90;;;;;;5030478;28;20037;-77
2022/05/07 08:02:50;;;;;;;32.13;23.95;;;16.40;99.90;;;;;;5030308;28;20033;-77
2022/05/07 08:05:17;;;;;;;29.27;23.60;;;16.40;99.90;;;;;;5029995;28;20132;-77
2022/05/07 08:13:14;;;;;;;27.08;23.52;;;16.80;99.90;;;;;;5019623;28;20128;-77
2022/05/07 08:15:41;;;;;;;28.38;23.00;;;16.90;99.90;;;;;;5029338;28;20045;-77
2022/05/07 08:18:07;;;;;;;27.42;22.83;;;16.90;99.90;;;;;;5029836;28;20045;-77
2022/05/07 08:20:32;;;;;;;25.48;22.80;;;16.90;99.90;;;;;;5030270;28;20412;-77
2022/05/07 08:22:58;;;;;;;26.67;22.42;;;16.90;99.90;;;;;;5030247;28;20037;-77
2022/05/07 08:25:23;;;;;;;26.45;22.02;;;17.00;99.90;;;;;;5029631;28;20051;-77
2022/05/07 08:27:49;;;;;;;27.95;23.48;;;16.90;99.90;;;;;;5030378;28;20399;-77
2022/05/07 08:30:14;;;;;;;30.48;22.15;;;16.90;99.90;;;;;;5030088;28;20041;-77
2022/05/07 08:32:40;;;;;;;26.38;22.40;;;16.90;99.90;;;;;;5013665;28;20053;-77
2022/05/07 08:35:06;;;;;;;25.20;21.98;;;16.80;99.90;;;;;;5029333;28;20037;-77
2022/05/07 08:37:31;;;;;;;27.58;21.23;;;16.80;99.90;;;;;;5029861;28;20049;-76
2022/05/07 08:40:01;;;;;;;28.73;22.10;;;16.80;99.90;;;;;;5030200;28;20488;-76
2022/05/07 08:42:29;;;;;;;26.90;21.00;;;16.70;99.90;;;;;;5029797;28;20049;-76
2022/05/07 08:44:56;;;;;;;25.98;21.90;;;16.70;99.90;;;;;;5029279;28;20041;-76
2022/05/07 08:47:25;;;;;;;24.98;21.42;;;16.60;99.90;;;;;;5013436;28;20053;-76
2022/05/07 08:49:52;;;;;;;32.35;22.92;;;16.60;99.90;;;;;;5032818;28;20033;-77
2022/05/07 08:52:19;;;;;;;27.55;22.65;;;16.50;99.90;;;;;;5033976;28;20114;-77
2022/05/07 08:54:48;;;;;;;26.45;22.88;;;16.50;99.90;;;;;;5033205;28;20033;-77
2022/05/07 08:57:14;;;;;;;27.15;23.23;;;16.50;99.90;;;;;;5033912;28;20033;-77
2022/05/07 08:59:41;;;;;;;29.83;23.48;;;16.40;99.90;;;;;;5034162;28;20045;-76
2022/05/07 09:02:08;;;;;;;26.38;22.27;;;16.40;99.90;;;;;;5034007;28;20395;-76
2022/05/07 09:04:36;;;;;;;27.55;22.55;;;16.40;99.90;;;;;;5016543;28;20029;-76
2022/05/07 09:07:03;;;;;;;27.92;22.60;;;16.40;99.90;;;;;;5033999;28;20127;-76
2022/05/07 09:09:31;;;;;;;24.75;20.65;;;16.40;99.90;;;;;;5033714;28;20411;-76
2022/05/07 09:11:58;;;;;;;28.30;21.70;;;16.50;99.90;;;;;;5033722;28;20049;-75
2022/05/07 09:14:31;;;;;;;26.38;22.10;;;16.50;99.90;;;;;;5032963;28;20137;-76
2022/05/07 09:17:00;;;;;;;28.53;22.27;;;16.60;99.90;;;;;;5033614;28;20045;-75
2022/05/07 09:19:27;;;;;;;26.45;22.52;;;16.70;99.90;;;;;;5033455;28;20715;-75
2022/05/07 09:22:07;;;;;;;25.40;21.35;;;16.80;99.90;;;;;;5046425;28;20041;-75
2022/05/07 09:24:33;;;;;;;27.55;20.95;;;16.80;99.90;;;;;;5049175;28;20467;-75
2022/05/07 09:26:59;;;;;;;27.95;21.75;;;16.70;99.90;;;;;;5053151;28;20526;-75
2022/05/07 09:29:29;;;;;;;26.73;21.30;;;16.80;99.90;;;;;;5053411;28;20060;-75
2022/05/07 09:31:54;;;;;;;26.95;21.50;;;16.80;99.90;;;;;;5053184;28;20047;-75
2022/05/07 09:37:19;;;;;;;41.17;29.50;;;16.80;99.90;;;;;;5050887;28;20072;-75
2022/05/07 09:39:51;;;;;;;47.47;32.40;;;16.90;99.90;;;;;;5044706;28;20029;-75
2022/05/07 09:42:19;;;;;;;42.67;32.47;;;17.00;99.90;;;;;;5051908;28;20037;-74
2022/05/07 09:44:46;;;;;;;45.63;32.88;;;17.10;99.90;;;;;;5050432;28;20060;-74
2022/05/07 09:47:12;;;;;;;45.30;31.42;;;17.30;99.90;;;;;;5048407;28;20603;-74
2022/05/07 09:52:31;;;;;;;37.67;29.35;;;17.70;99.90;;;;;;5033172;28;20107;-75
2022/05/07 09:57:41;;;;;;;;;;;17.40;99.90;;;;;;5052766;28;20186;-74
2022/05/07 10:00:10;;;;;;;38.63;28.67;;;17.40;99.90;;;;;;5051337;28;20593;-74
2022/05/07 10:03:11;;;;;;;38.20;28.70;;;17.60;99.90;;;;;;5041833;28;20029;-74
2022/05/07 10:06:11;;;;;;;37.45;27.27;;;17.80;99.90;;;;;;5049867;28;20033;-74
2022/05/07 10:08:52;;;;;;;43.78;28.10;;;18.00;99.90;;;;;;5049932;28;20037;-74
2022/05/07 10:11:18;;;;;;;38.63;28.83;;;18.10;99.90;;;;;;5048035;28;20059;-74
2022/05/07 10:13:58;;;;;;;36.78;28.13;;;18.30;99.90;;;;;;5031617;28;20080;-73
2022/05/07 10:16:28;;;;;;;38.83;29.30;;;18.50;99.90;;;;;;5049300;28;20033;-73
2022/05/07 10:18:55;;;;;;;38.78;28.70;;;18.60;99.90;;;;;;5051314;28;20037;-74
2022/05/07 10:21:21;;;;;;;39.42;29.42;;;18.90;99.90;;;;;;5046391;28;20033;-74
2022/05/07 10:23:53;;;;;;;37.55;27.35;;;19.00;99.90;;;;;;5049069;28;20033;-74
2022/05/07 10:26:20;;;;;;;35.80;27.13;;;19.10;99.90;;;;;;5049987;28;20507;-74
2022/05/07 10:28:46;;;;;;;38.30;26.75;;;19.20;99.90;;;;;;5047723;28;20043;-74
2022/05/07 10:31:22;;;;;;;34.65;26.55;;;19.10;99.90;;;;;;5050981;28;20033;-74
2022/05/07 10:33:49;;;;;;;33.50;25.13;;;18.70;99.90;;;;;;5031482;28;20120;-75
2022/05/07 10:36:16;;;;;;;34.67;26.30;;;18.40;99.90;;;;;;5032091;28;20049;-74
2022/05/07 10:38:46;;;;;;;37.60;27.10;;;18.50;99.90;;;;;;5031943;28;20041;-74
2022/05/07 10:41:11;;;;;;;38.13;28.52;;;18.40;99.90;;;;;;5032067;28;20422;-74
2022/05/07 10:43:44;;;;;;;37.50;28.42;;;18.20;99.90;;;;;;5031868;28;20029;-74
2022/05/07 10:46:13;;;;;;;41.40;29.73;;;18.00;99.90;;;;;;5031953;28;20050;-74
2022/05/07 10:48:45;;;;;;;41.58;30.13;;;17.80;99.90;;;;;;5031875;28;20128;-74
2022/05/07 10:51:27;;;;;;;38.70;28.75;;;17.80;99.90;;;;;;5031859;28;20099;-74
2022/05/07 10:53:56;;;;;;;41.20;29.52;;;17.80;99.90;;;;;;5031620;28;20458;-74
2022/05/07 10:56:23;;;;;;;38.20;28.25;;;17.80;99.90;;;;;;5031719;28;20045;-74
2022/05/07 10:58:54;;;;;;;41.25;28.23;;;18.00;99.90;;;;;;5031664;28;20042;-74
2022/05/07 11:01:21;;;;;;;40.83;28.88;;;18.10;99.90;;;;;;5014978;28;20029;-75
2022/05/07 11:03:47;;;;;;;42.65;29.65;;;18.10;99.90;;;;;;5030939;28;20048;-74
2022/05/07 11:06:13;;;;;;;44.10;30.20;;;17.90;99.90;;;;;;5031737;28;20464;-75
2022/05/07 11:08:49;;;;;;;49.30;33.35;;;18.00;99.90;;;;;;5032886;28;20124;-74
2022/05/07 11:11:16;;;;;;;48.75;33.80;;;17.80;99.90;;;;;;5030577;28;20073;-75
2022/05/07 11:13:50;;;;;;;45.95;33.25;;;17.80;99.90;;;;;;5031076;28;20041;-75
2022/05/07 11:16:17;;;;;;;48.72;33.15;;;17.90;99.90;;;;;;5031372;28;20041;-75
2022/05/07 11:18:50;;;;;;;46.40;32.45;;;18.00;99.90;;;;;;5031116;28;20050;-75
2022/05/07 11:21:18;;;;;;;47.83;31.63;;;17.80;99.90;;;;;;5031526;28;20539;-75
2022/05/07 11:23:44;;;;;;;43.42;30.13;;;17.90;99.90;;;;;;5030732;28;20045;-75
2022/05/07 11:26:15;;;;;;;39.97;28.38;;;18.00;99.90;;;;;;5031170;28;20045;-75
2022/05/07 11:28:43;;;;;;;40.53;28.45;;;17.90;99.90;;;;;;5031083;28;20042;-75
2022/05/07 11:31:10;;;;;;;37.85;26.38;;;17.90;99.90;;;;;;5031127;28;20041;-75
2022/05/07 11:33:36;;;;;;;38.88;26.40;;;17.90;99.90;;;;;;5030946;28;20048;-76
2022/05/07 11:36:06;;;;;;;35.10;24.48;;;17.80;99.90;;;;;;5030696;28;20068;-76
2022/05/07 11:38:35;;;;;;;31.25;23.33;;;17.70;99.90;;;;;;5030922;28;20073;-76
2022/05/07 11:41:14;;;;;;;29.35;21.77;;;17.50;99.90;;;;;;5030805;28;20117;-76
2022/05/07 11:46:25;;;;;;;24.92;18.70;;;17.30;99.90;;;;;;5047294;28;20132;-76
2022/05/07 11:48:50;;;;;;;25.35;17.17;;;17.30;99.90;;;;;;5031090;28;20052;-75
2022/05/07 11:51:24;;;;;;;25.20;17.00;;;17.60;99.90;;;;;;5014062;28;20109;-75
2022/05/07 11:53:49;;;;;;;20.48;15.48;;;17.90;99.90;;;;;;5029889;28;20124;-76
2022/05/07 11:56:15;;;;;;;26.50;17.02;;;18.20;99.90;;;;;;5030244;28;20164;-76
2022/05/07 11:58:42;;;;;;;23.77;15.88;;;18.50;99.90;;;;;;5044328;28;20123;-76
2022/05/07 12:01:22;;;;;;;20.23;14.05;;;18.70;99.90;;;;;;5029211;28;20045;-76
2022/05/07 12:03:49;;;;;;;13.63;10.32;;;18.80;99.90;;;;;;5044366;28;20049;-76
2022/05/07 12:06:26;;;;;;;14.05;8.55;;;18.70;99.90;;;;;;5047535;28;20116;-75
2022/05/07 12:08:51;;;;;;;10.27;8.13;;;18.40;99.90;;;;;;5047070;28;20059;-76
2022/05/07 12:11:17;;;;;;;11.20;9.20;;;18.60;99.90;;;;;;5059641;28;20136;-76
2022/05/07 12:13:45;;;;;;;11.40;8.95;;;18.80;99.90;;;;;;5045425;28;20032;-76
2022/05/07 12:18:55;;;;;;;12.95;9.00;;;19.00;99.90;;;;;;5049943;28;20048;-77
2022/05/07 12:29:48;;;;;;;13.95;9.45;;;19.10;99.90;;;;;;5034632;28;20037;-76
2022/05/07 12:29:50;;;;;;;;;;;19.40;99.90;;;;;;5050354;28;20135;-77
2022/05/07 12:32:20;;;;;;;14.25;9.93;;;19.50;99.90;;;;;;5050287;28;20436;-77
2022/05/07 12:34:46;;;;;;;12.23;9.85;;;19.30;99.90;;;;;;5049465;28;20045;-77
2022/05/07 12:37:12;;;;;;;14.52;10.43;;;19.40;99.90;;;;;;5033493;28;20040;-77
2022/05/07 12:39:39;;;;;;;11.95;9.60;;;19.50;99.90;;;;;;5049912;28;20449;-77
2022/05/07 12:42:10;;;;;;;13.10;9.82;;;19.50;99.90;;;;;;5049867;28;20538;-77
2022/05/07 12:44:35;;;;;;;13.43;9.93;;;19.10;99.90;;;;;;5065871;28;20037;-77
2022/05/07 12:47:02;;;;;;;14.75;10.18;;;18.90;99.90;;;;;;5066890;28;20040;-77
2022/05/07 12:49:27;;;;;;;13.95;10.55;;;18.70;99.90;;;;;;5049813;28;20050;-77
2022/05/07 12:51:53;;;;;;;15.00;11.02;;;18.70;99.90;;;;;;5047135;28;20045;-76
2022/05/07 12:54:21;;;;;;;14.75;10.32;;;19.00;99.90;;;;;;5044683;28;20037;-77
2022/05/07 12:56:47;;;;;;;13.90;9.40;;;19.30;99.90;;;;;;5043390;28;20052;-77
2022/05/07 12:59:12;;;;;;;14.55;10.50;;;19.50;99.90;;;;;;5045756;28;20461;-77
2022/05/07 13:01:38;;;;;;;14.20;9.95;;;19.80;99.90;;;;;;5043599;28;20564;-77
2022/05/07 13:04:04;;;;;;;14.20;10.38;;;19.90;99.90;;;;;;5047229;28;20036;-77
2022/05/07 13:06:30;;;;;;;16.88;13.32;;;19.90;99.90;;;;;;5039804;28;20030;-77
2022/05/07 13:08:58;;;;;;;17.90;12.93;;;19.60;99.90;;;;;;5029575;28;20052;-77
2022/05/07 13:11:27;;;;;;;19.05;13.88;;;19.50;99.90;;;;;;5036025;28;20033;-77
2022/05/07 13:13:54;;;;;;;17.08;13.88;;;19.50;99.90;;;;;;5041079;28;20072;-77
2022/05/07 13:16:19;;;;;;;20.90;15.85;;;19.60;99.90;;;;;;5042174;28;20037;-77
2022/05/07 13:18:45;;;;;;;18.55;14.10;;;19.70;99.90;;;;;;5026032;28;20040;-78
2022/05/07 13:21:14;;;;;;;20.20;13.95;;;20.00;99.90;;;;;;5041183;28;20033;-76
2022/05/07 13:23:41;;;;;;;16.13;13.15;;;20.00;99.90;;;;;;5042565;28;20063;-77
2022/05/07 13:26:07;;;;;;;18.05;13.15;;;20.00;99.90;;;;;;5041651;28;20382;-77
2022/05/07 13:28:33;;;;;;;15.52;11.75;;;19.70;99.90;;;;;;5043299;28;20045;-78
2022/05/07 13:30:59;;;;;;;15.43;11.52;;;19.70;99.90;;;;;;5061815;28;20048;-77
2022/05/07 13:33:26;;;;;;;15.32;11.85;;;20.10;99.90;;;;;;5044484;28;20082;-78
2022/05/07 13:35:52;;;;;;;15.43;11.18;;;20.40;99.90;;;;;;5045700;28;20437;-77
2022/05/07 13:38:18;;;;;;;11.05;9.05;;;20.30;99.90;;;;;;5032195;28;20044;-78
2022/05/07 13:40:44;;;;;;;11.88;8.88;;;20.80;99.90;;;;;;5050530;28;20371;-78
2022/05/07 13:43:11;;;;;;;9.32;6.75;;;21.20;99.90;;;;;;5052947;28;20116;-78
2022/05/07 13:45:37;;;;;;;10.55;7.65;;;21.40;99.90;;;;;;5051365;28;20037;-78
2022/05/07 13:48:05;;;;;;;11.75;7.60;;;21.20;99.90;;;;;;5052191;28;20044;-78
2022/05/07 13:50:31;;;;;;;9.52;7.80;;;20.50;99.90;;;;;;5046305;28;20091;-78
2022/05/07 13:52:57;;;;;;;12.05;8.68;;;20.10;99.90;;;;;;5050004;28;20083;-78